createdAt,value
2023-03-31T00:00:37.664Z,0
2023-03-31T00:01:38.275Z,0
2023-03-31T00:02:38.947Z,0
2023-03-31T00:03:39.631Z,0
2023-03-31T00:04:40.147Z,0
2023-03-31T00:05:40.712Z,0
2023-03-31T00:06:41.297Z,0
2023-03-31T00:07:41.903Z,0
2023-03-31T00:08:42.494Z,0
2023-03-31T00:09:43.080Z,0
2023-03-31T00:10:43.738Z,0
2023-03-31T00:11:44.284Z,0
2023-03-31T00:12:44.894Z,0
2023-03-31T00:13:45.466Z,0
2023-03-31T00:14:46.073Z,0
2023-03-31T00:15:46.659Z,0
2023-03-31T00:16:47.384Z,0
2023-03-31T00:17:48.033Z,0
2023-03-31T00:18:48.604Z,0
2023-03-31T00:19:49.201Z,0
2023-03-31T00:20:49.793Z,0
2023-03-31T00:21:50.392Z,0
2023-03-31T00:22:50.980Z,0
2023-03-31T00:23:51.575Z,0
2023-03-31T00:24:52.168Z,0
2023-03-31T00:25:52.773Z,0
2023-03-31T00:26:53.375Z,0
2023-03-31T00:27:53.972Z,0
2023-03-31T00:28:54.563Z,0
2023-03-31T00:29:55.157Z,0
2023-03-31T00:30:55.748Z,0
2023-03-31T00:31:56.427Z,0
2023-03-31T00:32:56.989Z,0
2023-03-31T00:33:57.552Z,0
2023-03-31T00:34:58.165Z,0
2023-03-31T00:35:58.797Z,0
2023-03-31T00:36:59.368Z,0
2023-03-31T00:37:59.970Z,0
2023-03-31T00:39:00.580Z,0
2023-03-31T00:40:01.151Z,0
2023-03-31T00:41:01.751Z,0
2023-03-31T00:42:02.343Z,0
2023-03-31T00:43:02.930Z,0
2023-03-31T00:44:03.531Z,0
2023-03-31T00:45:04.150Z,0
2023-03-31T00:46:05.076Z,0
2023-03-31T00:47:05.316Z,0
2023-03-31T00:48:05.938Z,0
2023-03-31T00:49:06.518Z,0
2023-03-31T00:50:07.113Z,0
2023-03-31T00:51:07.712Z,0
2023-03-31T00:52:08.322Z,0
2023-03-31T00:53:08.925Z,0
2023-03-31T00:54:09.523Z,0
2023-03-31T00:55:10.133Z,0
2023-03-31T00:56:10.704Z,0
2023-03-31T00:57:11.319Z,0
2023-03-31T00:58:11.889Z,0
2023-03-31T00:59:12.507Z,0
2023-03-31T01:00:13.099Z,0
2023-03-31T01:01:13.777Z,0
2023-03-31T01:02:14.355Z,0
2023-03-31T01:03:15.019Z,0
2023-03-31T01:04:15.589Z,0
2023-03-31T01:05:16.200Z,0
2023-03-31T01:06:16.774Z,0
2023-03-31T01:07:17.362Z,0
2023-03-31T01:08:17.972Z,0
2023-03-31T01:09:18.561Z,0
2023-03-31T01:10:19.146Z,0
2023-03-31T01:11:19.773Z,0
2023-03-31T01:12:20.375Z,0
2023-03-31T01:13:20.947Z,0
2023-03-31T01:14:21.540Z,0
2023-03-31T01:15:22.147Z,0
2023-03-31T01:16:22.774Z,0
2023-03-31T01:17:23.542Z,0
2023-03-31T01:18:24.315Z,0
2023-03-31T01:19:24.994Z,0
2023-03-31T01:20:25.590Z,0
2023-03-31T01:21:26.180Z,0
2023-03-31T01:22:26.776Z,0
2023-03-31T01:23:27.364Z,0
2023-03-31T01:24:27.962Z,0
2023-03-31T01:25:28.548Z,0
2023-03-31T01:26:29.176Z,0
2023-03-31T01:27:29.736Z,0
2023-03-31T01:28:30.345Z,0
2023-03-31T01:29:30.938Z,0
2023-03-31T01:30:31.529Z,0
2023-03-31T01:31:32.252Z,0
2023-03-31T01:32:32.847Z,0
2023-03-31T01:33:33.416Z,0
2023-03-31T01:34:34.001Z,0
2023-03-31T01:35:34.625Z,0
2023-03-31T01:36:35.187Z,0
2023-03-31T01:37:35.780Z,0
2023-03-31T01:38:36.374Z,0
2023-03-31T01:39:36.987Z,0
2023-03-31T01:40:37.605Z,0
2023-03-31T01:41:38.193Z,0
2023-03-31T01:42:38.788Z,0
2023-03-31T01:43:39.384Z,0
2023-03-31T01:44:40.002Z,0
2023-03-31T01:45:40.569Z,0
2023-03-31T01:46:41.207Z,0
2023-03-31T01:47:41.843Z,0
2023-03-31T01:48:42.411Z,0
2023-03-31T01:49:43.019Z,0
2023-03-31T01:50:43.615Z,0
2023-03-31T01:51:44.240Z,0
2023-03-31T01:52:44.800Z,0
2023-03-31T01:53:45.391Z,0
2023-03-31T01:54:46.002Z,0
2023-03-31T01:55:46.620Z,0
2023-03-31T01:56:47.237Z,0
2023-03-31T01:57:47.801Z,0
2023-03-31T01:58:48.405Z,0
2023-03-31T01:59:49.011Z,0
2023-03-31T02:00:49.604Z,0
2023-03-31T02:01:50.423Z,0
2023-03-31T02:02:51.092Z,0
2023-03-31T02:03:51.700Z,0
2023-03-31T02:04:52.264Z,0
2023-03-31T02:05:52.859Z,0
2023-03-31T02:06:53.450Z,0
2023-03-31T02:07:54.043Z,0
2023-03-31T02:08:54.654Z,0
2023-03-31T02:09:55.251Z,0
2023-03-31T02:10:55.843Z,0
2023-03-31T02:11:56.455Z,0
2023-03-31T02:12:57.056Z,0
2023-03-31T02:13:57.643Z,0
2023-03-31T02:14:58.257Z,0
2023-03-31T02:15:58.892Z,0
2023-03-31T02:16:59.470Z,0
2023-03-31T02:18:00.083Z,0
2023-03-31T02:19:00.654Z,0
2023-03-31T02:20:01.247Z,0
2023-03-31T02:21:01.840Z,0
2023-03-31T02:22:02.452Z,0
2023-03-31T02:23:03.062Z,0
2023-03-31T02:24:03.653Z,0
2023-03-31T02:25:04.247Z,0
2023-03-31T02:26:05.064Z,0
2023-03-31T02:27:05.806Z,0
2023-03-31T02:28:06.421Z,0
2023-03-31T02:29:07.010Z,0
2023-03-31T02:30:07.602Z,0
2023-03-31T02:31:08.275Z,0
2023-03-31T02:32:08.827Z,0
2023-03-31T02:33:09.465Z,0
2023-03-31T02:34:10.038Z,0
2023-03-31T02:35:10.641Z,0
2023-03-31T02:36:11.281Z,0
2023-03-31T02:37:11.839Z,0
2023-03-31T02:38:12.439Z,0
2023-03-31T02:39:13.025Z,0
2023-03-31T02:40:13.620Z,0
2023-03-31T02:41:14.229Z,0
2023-03-31T02:42:14.822Z,0
2023-03-31T02:43:15.431Z,0
2023-03-31T02:44:16.026Z,0
2023-03-31T02:45:16.636Z,0
2023-03-31T02:46:17.309Z,0
2023-03-31T02:47:17.841Z,0
2023-03-31T02:48:18.446Z,0
2023-03-31T02:49:19.032Z,0
2023-03-31T02:50:19.642Z,0
2023-03-31T02:51:20.236Z,0
2023-03-31T02:52:20.850Z,0
2023-03-31T02:53:21.421Z,0
2023-03-31T02:54:22.015Z,0
2023-03-31T02:55:22.612Z,0
2023-03-31T02:56:23.218Z,0
2023-03-31T02:57:23.895Z,0
2023-03-31T02:58:24.457Z,0
2023-03-31T02:59:25.055Z,0
2023-03-31T03:00:25.648Z,0
2023-03-31T03:01:26.282Z,0
2023-03-31T03:02:26.957Z,0
2023-03-31T03:03:27.599Z,0
2023-03-31T03:04:28.162Z,0
2023-03-31T03:05:28.757Z,0
2023-03-31T03:06:29.348Z,0
2023-03-31T03:07:29.944Z,0
2023-03-31T03:08:30.535Z,0
2023-03-31T03:09:31.130Z,0
2023-03-31T03:10:31.733Z,0
2023-03-31T03:11:32.318Z,0
2023-03-31T03:12:33.025Z,0
2023-03-31T03:13:33.619Z,0
2023-03-31T03:14:34.209Z,0
2023-03-31T03:15:34.806Z,0
2023-03-31T03:16:35.483Z,0
2023-03-31T03:17:36.041Z,0
2023-03-31T03:18:36.638Z,0
2023-03-31T03:19:37.233Z,0
2023-03-31T03:20:37.829Z,0
2023-03-31T03:21:38.424Z,0
2023-03-31T03:22:39.037Z,0
2023-03-31T03:23:39.625Z,0
2023-03-31T03:24:40.222Z,0
2023-03-31T03:25:40.815Z,0
2023-03-31T03:26:41.408Z,0
2023-03-31T03:27:41.999Z,0
2023-03-31T03:28:42.593Z,0
2023-03-31T03:29:43.196Z,0
2023-03-31T03:30:43.822Z,0
2023-03-31T03:31:44.409Z,0
2023-03-31T03:32:45.028Z,0
2023-03-31T03:33:45.617Z,0
2023-03-31T03:34:46.234Z,0
2023-03-31T03:35:46.905Z,0
2023-03-31T03:36:47.461Z,0
2023-03-31T03:37:48.066Z,0
2023-03-31T03:38:48.665Z,0
2023-03-31T03:39:49.246Z,0
2023-03-31T03:40:50.268Z,0
2023-03-31T03:41:50.978Z,0
2023-03-31T03:42:51.571Z,0
2023-03-31T03:43:52.161Z,0
2023-03-31T03:44:52.759Z,0
2023-03-31T03:45:53.384Z,0
2023-03-31T03:46:53.978Z,0
2023-03-31T03:47:54.616Z,0
2023-03-31T03:48:55.182Z,0
2023-03-31T03:49:55.775Z,0
2023-03-31T03:50:56.367Z,0
2023-03-31T03:51:56.956Z,0
2023-03-31T03:52:57.573Z,0
2023-03-31T03:53:58.161Z,0
2023-03-31T03:54:58.753Z,0
2023-03-31T03:55:59.385Z,0
2023-03-31T03:57:00.064Z,0
2023-03-31T03:58:00.662Z,0
2023-03-31T03:59:01.262Z,0
2023-03-31T04:00:01.872Z,0
2023-03-31T04:01:02.512Z,0
2023-03-31T04:02:03.112Z,0
2023-03-31T04:03:03.712Z,0
2023-03-31T04:04:04.326Z,0
2023-03-31T04:05:04.997Z,0
2023-03-31T04:06:06.002Z,0
2023-03-31T04:07:06.728Z,0
2023-03-31T04:08:07.316Z,0
2023-03-31T04:09:07.918Z,0
2023-03-31T04:10:08.523Z,0
2023-03-31T04:11:09.133Z,0
2023-03-31T04:12:09.746Z,0
2023-03-31T04:13:10.338Z,0
2023-03-31T04:14:10.929Z,0
2023-03-31T04:15:11.528Z,0
2023-03-31T04:16:12.145Z,0
2023-03-31T04:17:12.710Z,0
2023-03-31T04:18:15.025Z,0
2023-03-31T04:19:14.897Z,0
2023-03-31T04:20:15.478Z,0
2023-03-31T04:21:16.075Z,0
2023-03-31T04:22:16.665Z,0
2023-03-31T04:23:17.260Z,0
2023-03-31T04:24:18.799Z,0
2023-03-31T04:25:19.458Z,0
2023-03-31T04:26:20.062Z,0
2023-03-31T04:27:20.688Z,0
2023-03-31T04:28:21.277Z,0
2023-03-31T04:29:21.874Z,0
2023-03-31T04:30:22.466Z,0
2023-03-31T04:31:23.156Z,0
2023-03-31T04:32:23.811Z,4
2023-03-31T04:33:24.342Z,4
2023-03-31T04:34:24.935Z,0
2023-03-31T04:35:25.569Z,4
2023-03-31T04:36:26.146Z,4
2023-03-31T04:37:26.764Z,4
2023-03-31T04:38:27.536Z,8
2023-03-31T04:39:27.981Z,4
2023-03-31T04:40:28.579Z,8
2023-03-31T04:41:29.171Z,12
2023-03-31T04:42:29.758Z,16
2023-03-31T04:43:30.374Z,16
2023-03-31T04:44:30.952Z,20
2023-03-31T04:45:31.563Z,20
2023-03-31T04:46:32.136Z,20
2023-03-31T04:47:32.762Z,20
2023-03-31T04:48:33.325Z,28
2023-03-31T04:49:33.921Z,28
2023-03-31T04:50:34.536Z,32
2023-03-31T04:51:35.128Z,32
2023-03-31T04:52:35.721Z,40
2023-03-31T04:53:36.314Z,44
2023-03-31T04:54:36.908Z,52
2023-03-31T04:55:37.502Z,56
2023-03-31T04:56:38.096Z,52
2023-03-31T04:57:38.694Z,60
2023-03-31T04:58:39.326Z,68
2023-03-31T04:59:39.919Z,76
2023-03-31T05:00:40.511Z,80
2023-03-31T05:01:41.206Z,104
2023-03-31T05:02:41.928Z,128
2023-03-31T05:03:42.652Z,144
2023-03-31T05:04:43.211Z,144
2023-03-31T05:05:43.804Z,136
2023-03-31T05:06:44.400Z,152
2023-03-31T05:07:44.996Z,188
2023-03-31T05:08:45.593Z,216
2023-03-31T05:09:46.187Z,264
2023-03-31T05:10:46.781Z,288
2023-03-31T05:11:47.379Z,292
2023-03-31T05:12:47.977Z,292
2023-03-31T05:13:48.598Z,288
2023-03-31T05:14:49.169Z,292
2023-03-31T05:15:49.766Z,304
2023-03-31T05:16:50.405Z,316
2023-03-31T05:17:51.037Z,316
2023-03-31T05:18:51.615Z,316
2023-03-31T05:19:52.214Z,340
2023-03-31T05:20:52.809Z,344
2023-03-31T05:21:53.408Z,348
2023-03-31T05:22:54.011Z,384
2023-03-31T05:23:54.600Z,368
2023-03-31T05:24:55.194Z,400
2023-03-31T05:25:55.794Z,424
2023-03-31T05:26:56.416Z,472
2023-03-31T05:27:57.026Z,472
2023-03-31T05:28:57.624Z,452
2023-03-31T05:29:58.238Z,500
2023-03-31T05:30:58.833Z,568
2023-03-31T05:31:59.530Z,640
2023-03-31T05:33:00.138Z,712
2023-03-31T05:34:00.762Z,812
2023-03-31T05:35:01.360Z,892
2023-03-31T05:36:01.981Z,1032
2023-03-31T05:37:02.573Z,1152
2023-03-31T05:38:03.187Z,1248
2023-03-31T05:39:03.792Z,1388
2023-03-31T05:40:04.408Z,1472
2023-03-31T05:41:05.009Z,1504
2023-03-31T05:42:05.609Z,1444
2023-03-31T05:43:06.197Z,1344
2023-03-31T05:44:06.796Z,1328
2023-03-31T05:45:09.223Z,1380
2023-03-31T05:46:09.137Z,1396
2023-03-31T05:47:09.911Z,1344
2023-03-31T05:48:10.530Z,1304
2023-03-31T05:49:11.117Z,1332
2023-03-31T05:50:13.343Z,1384
2023-03-31T05:51:12.314Z,1432
2023-03-31T05:52:12.912Z,1492
2023-03-31T05:53:13.512Z,1572
2023-03-31T05:54:14.108Z,1660
2023-03-31T05:55:14.702Z,1776
2023-03-31T05:56:15.301Z,1916
2023-03-31T05:57:15.926Z,2052
2023-03-31T05:58:16.494Z,2148
2023-03-31T05:59:17.088Z,2216
2023-03-31T06:00:17.689Z,2288
2023-03-31T06:01:18.397Z,2368
2023-03-31T06:02:19.091Z,2472
2023-03-31T06:03:19.676Z,2408
2023-03-31T06:04:20.270Z,2192
2023-03-31T06:05:20.869Z,2132
2023-03-31T06:06:21.442Z,2440
2023-03-31T06:07:22.037Z,3012
2023-03-31T06:08:22.633Z,3480
2023-03-31T06:09:23.240Z,3680
2023-03-31T06:10:23.833Z,3744
2023-03-31T06:11:24.425Z,3716
2023-03-31T06:12:25.028Z,3656
2023-03-31T06:13:25.642Z,3564
2023-03-31T06:14:26.241Z,3420
2023-03-31T06:15:26.837Z,3248
2023-03-31T06:16:27.531Z,3072
2023-03-31T06:17:28.185Z,2916
2023-03-31T06:18:28.845Z,2776
2023-03-31T06:19:29.383Z,2672
2023-03-31T06:20:29.984Z,2632
2023-03-31T06:21:30.599Z,2624
2023-03-31T06:22:31.200Z,2588
2023-03-31T06:23:31.811Z,2524
2023-03-31T06:24:32.420Z,2444
2023-03-31T06:25:40.409Z,2376
2023-03-31T06:26:34.599Z,2360
2023-03-31T06:27:35.223Z,2372
2023-03-31T06:28:35.829Z,2436
2023-03-31T06:29:36.422Z,2520
2023-03-31T06:30:37.009Z,2564
2023-03-31T06:31:37.642Z,2772
2023-03-31T06:32:38.262Z,3056
2023-03-31T06:33:38.839Z,3320
2023-03-31T06:34:39.457Z,3336
2023-03-31T06:35:40.086Z,3324
2023-03-31T06:36:40.681Z,3364
2023-03-31T06:37:41.270Z,3520
2023-03-31T06:38:41.866Z,3648
2023-03-31T06:39:42.467Z,3600
2023-03-31T06:40:43.104Z,3200
2023-03-31T06:41:43.678Z,2792
2023-03-31T06:42:44.286Z,2668
2023-03-31T06:43:44.933Z,2660
2023-03-31T06:44:45.742Z,2384
2023-03-31T06:45:46.524Z,2616
2023-03-31T06:46:47.260Z,3216
2023-03-31T06:47:48.041Z,3492
2023-03-31T06:48:48.708Z,3228
2023-03-31T06:49:49.637Z,2764
2023-03-31T06:50:50.210Z,2764
2023-03-31T06:51:50.824Z,2856
2023-03-31T06:52:51.434Z,2996
2023-03-31T06:53:52.420Z,3296
2023-03-31T06:54:53.118Z,3328
2023-03-31T06:55:53.856Z,3344
2023-03-31T06:56:54.647Z,3692
2023-03-31T06:57:55.020Z,4264
2023-03-31T06:58:55.640Z,4724
2023-03-31T06:59:56.236Z,4940
2023-03-31T07:00:56.882Z,5148
2023-03-31T07:01:57.464Z,5648
2023-03-31T07:02:58.083Z,6228
2023-03-31T07:03:58.664Z,6556
2023-03-31T07:04:59.261Z,6604
2023-03-31T07:05:59.866Z,6252
2023-03-31T07:07:00.457Z,6068
2023-03-31T07:08:01.097Z,6064
2023-03-31T07:09:01.665Z,6412
2023-03-31T07:10:02.263Z,6968
2023-03-31T07:11:02.879Z,7064
2023-03-31T07:12:03.466Z,6988
2023-03-31T07:13:05.699Z,7224
2023-03-31T07:14:05.658Z,7920
2023-03-31T07:15:06.381Z,9056
2023-03-31T07:16:07.075Z,10128
2023-03-31T07:17:07.843Z,10472
2023-03-31T07:18:08.462Z,10876
2023-03-31T07:19:09.038Z,12872
2023-03-31T07:20:09.658Z,15840
2023-03-31T07:21:10.622Z,18368
2023-03-31T07:22:11.292Z,19808
2023-03-31T07:23:11.896Z,19168
2023-03-31T07:24:12.488Z,18464
2023-03-31T07:25:13.102Z,17576
2023-03-31T07:26:13.702Z,16448
2023-03-31T07:27:14.300Z,15228
2023-03-31T07:28:14.901Z,14004
2023-03-31T07:29:15.495Z,12420
2023-03-31T07:30:16.100Z,10632
2023-03-31T07:31:16.696Z,9000
2023-03-31T07:32:17.311Z,7732
2023-03-31T07:33:17.900Z,6940
2023-03-31T07:34:18.509Z,6564
2023-03-31T07:35:19.110Z,6288
2023-03-31T07:36:20.125Z,5992
2023-03-31T07:37:20.946Z,5756
2023-03-31T07:38:21.540Z,5752
2023-03-31T07:39:22.138Z,5856
2023-03-31T07:40:22.757Z,6096
2023-03-31T07:41:23.332Z,6276
2023-03-31T07:42:23.947Z,6500
2023-03-31T07:43:24.549Z,6784
2023-03-31T07:44:25.151Z,7060
2023-03-31T07:45:25.746Z,7348
2023-03-31T07:46:26.360Z,7656
2023-03-31T07:47:26.944Z,7936
2023-03-31T07:48:27.556Z,8332
2023-03-31T07:49:28.203Z,9104
2023-03-31T07:50:28.771Z,10412
2023-03-31T07:51:29.369Z,11688
2023-03-31T07:52:29.969Z,13024
2023-03-31T07:53:30.584Z,13892
2023-03-31T07:54:31.169Z,13704
2023-03-31T07:55:31.773Z,14028
2023-03-31T07:56:32.382Z,16360
2023-03-31T07:57:33.121Z,19232
2023-03-31T07:58:33.683Z,20448
2023-03-31T07:59:34.279Z,19744
2023-03-31T08:00:34.884Z,18048
2023-03-31T08:01:35.551Z,15772
2023-03-31T08:02:36.452Z,13604
2023-03-31T08:03:36.895Z,11920
2023-03-31T08:04:37.518Z,12356
2023-03-31T08:05:38.096Z,15076
2023-03-31T08:06:38.694Z,17808
2023-03-31T08:07:39.297Z,18688
2023-03-31T08:08:39.892Z,18336
2023-03-31T08:09:40.496Z,19136
2023-03-31T08:10:41.089Z,20992
2023-03-31T08:11:41.684Z,22784
2023-03-31T08:12:42.293Z,24064
2023-03-31T08:13:42.888Z,24192
2023-03-31T08:14:43.511Z,23328
2023-03-31T08:15:44.213Z,21888
2023-03-31T08:16:44.958Z,19616
2023-03-31T08:17:45.611Z,18144
2023-03-31T08:18:46.193Z,19008
2023-03-31T08:19:46.790Z,19072
2023-03-31T08:20:49.491Z,17396
2023-03-31T08:21:48.980Z,16712
2023-03-31T08:22:49.609Z,15392
2023-03-31T08:23:50.180Z,12244
2023-03-31T08:24:50.779Z,9312
2023-03-31T08:25:51.380Z,8820
2023-03-31T08:26:51.998Z,9000
2023-03-31T08:27:52.602Z,8136
2023-03-31T08:28:53.220Z,7004
2023-03-31T08:29:53.817Z,6296
2023-03-31T08:30:54.411Z,6288
2023-03-31T08:31:55.123Z,6464
2023-03-31T08:32:55.784Z,6736
2023-03-31T08:33:56.369Z,7376
2023-03-31T08:34:56.971Z,8116
2023-03-31T08:35:57.611Z,8820
2023-03-31T08:36:58.170Z,9408
2023-03-31T08:37:58.782Z,9288
2023-03-31T08:38:59.382Z,9292
2023-03-31T08:40:00.006Z,9404
2023-03-31T08:41:00.579Z,9716
2023-03-31T08:42:01.202Z,9128
2023-03-31T08:43:01.803Z,9132
2023-03-31T08:44:02.398Z,10920
2023-03-31T08:45:03.000Z,12184
2023-03-31T08:46:03.861Z,11336
2023-03-31T08:47:04.762Z,12276
2023-03-31T08:48:07.202Z,13304
2023-03-31T08:49:06.013Z,12836
2023-03-31T08:50:06.624Z,11952
2023-03-31T08:51:07.472Z,12104
2023-03-31T08:52:08.291Z,11756
2023-03-31T08:53:08.894Z,11752
2023-03-31T08:54:09.510Z,11332
2023-03-31T08:55:10.111Z,10664
2023-03-31T08:56:10.730Z,10064
2023-03-31T08:57:11.384Z,8452
2023-03-31T08:58:11.950Z,9080
2023-03-31T08:59:12.539Z,9968
2023-03-31T09:00:13.133Z,11132
2023-03-31T09:01:13.765Z,11836
2023-03-31T09:02:14.478Z,13316
2023-03-31T09:03:15.188Z,13148
2023-03-31T09:04:15.884Z,13556
2023-03-31T09:05:16.442Z,14260
2023-03-31T09:06:17.263Z,15776
2023-03-31T09:07:17.654Z,16244
2023-03-31T09:08:18.252Z,16140
2023-03-31T09:09:18.875Z,16192
2023-03-31T09:10:19.468Z,16540
2023-03-31T09:11:20.095Z,17480
2023-03-31T09:12:20.672Z,18592
2023-03-31T09:13:21.276Z,19616
2023-03-31T09:14:21.879Z,19680
2023-03-31T09:15:22.469Z,19040
2023-03-31T09:16:23.140Z,17392
2023-03-31T09:17:23.774Z,15636
2023-03-31T09:18:25.407Z,14136
2023-03-31T09:19:25.925Z,14052
2023-03-31T09:20:26.522Z,13980
2023-03-31T09:21:27.123Z,12932
2023-03-31T09:22:27.743Z,11520
2023-03-31T09:23:28.326Z,10256
2023-03-31T09:24:30.932Z,8964
2023-03-31T09:25:30.539Z,8476
2023-03-31T09:26:31.125Z,7588
2023-03-31T09:27:31.727Z,6836
2023-03-31T09:28:32.342Z,7244
2023-03-31T09:29:32.925Z,6660
2023-03-31T09:30:33.561Z,6496
2023-03-31T09:31:34.181Z,6440
2023-03-31T09:32:34.792Z,6912
2023-03-31T09:33:35.356Z,9016
2023-03-31T09:34:35.952Z,9424
2023-03-31T09:35:36.583Z,9884
2023-03-31T09:36:37.150Z,13120
2023-03-31T09:37:37.750Z,9812
2023-03-31T09:38:38.351Z,8688
2023-03-31T09:39:38.965Z,8808
2023-03-31T09:40:39.561Z,9500
2023-03-31T09:41:40.160Z,7592
2023-03-31T09:42:40.760Z,7868
2023-03-31T09:43:41.386Z,9752
2023-03-31T09:44:41.990Z,13240
2023-03-31T09:45:42.627Z,14172
2023-03-31T09:46:43.269Z,14356
2023-03-31T09:47:43.866Z,14884
2023-03-31T09:48:44.451Z,14896
2023-03-31T09:49:53.368Z,11856
2023-03-31T09:50:45.706Z,9256
2023-03-31T09:51:46.279Z,10700
2023-03-31T09:52:46.866Z,10276
2023-03-31T09:53:47.469Z,11012
2023-03-31T09:54:48.064Z,10880
2023-03-31T09:55:48.664Z,12056
2023-03-31T09:56:49.279Z,12688
2023-03-31T09:57:49.883Z,13216
2023-03-31T09:58:50.480Z,12912
2023-03-31T09:59:51.080Z,12208
2023-03-31T10:00:51.703Z,11368
2023-03-31T10:01:52.399Z,10768
2023-03-31T10:02:52.984Z,10824
2023-03-31T10:03:53.614Z,11252
2023-03-31T10:04:54.159Z,11652
2023-03-31T10:05:54.756Z,11092
2023-03-31T10:06:55.363Z,10632
2023-03-31T10:07:55.978Z,12448
2023-03-31T10:08:56.577Z,14292
2023-03-31T10:09:57.180Z,15424
2023-03-31T10:10:57.788Z,16312
2023-03-31T10:11:58.383Z,17336
2023-03-31T10:12:58.982Z,18624
2023-03-31T10:13:59.599Z,19616
2023-03-31T10:15:00.218Z,20160
2023-03-31T10:16:00.845Z,20448
2023-03-31T10:17:01.424Z,20672
2023-03-31T10:18:02.093Z,20960
2023-03-31T10:19:02.643Z,20672
2023-03-31T10:20:03.250Z,19392
2023-03-31T10:21:03.940Z,18464
2023-03-31T10:22:04.559Z,17868
2023-03-31T10:23:05.183Z,17284
2023-03-31T10:24:05.774Z,17928
2023-03-31T10:25:06.358Z,16872
2023-03-31T10:26:06.957Z,16216
2023-03-31T10:27:07.555Z,16112
2023-03-31T10:28:08.155Z,16256
2023-03-31T10:29:08.771Z,16692
2023-03-31T10:30:09.379Z,17500
2023-03-31T10:31:10.277Z,19040
2023-03-31T10:32:11.133Z,20160
2023-03-31T10:33:21.936Z,20416
2023-03-31T10:34:13.348Z,18400
2023-03-31T10:35:13.971Z,16812
2023-03-31T10:36:14.618Z,18944
2023-03-31T10:37:15.198Z,22464
2023-03-31T10:38:15.801Z,23968
2023-03-31T10:39:16.398Z,21536
2023-03-31T10:40:17.038Z,17664
2023-03-31T10:41:17.652Z,15236
2023-03-31T10:42:18.218Z,14432
2023-03-31T10:43:18.816Z,13560
2023-03-31T10:44:19.413Z,13856
2023-03-31T10:45:33.573Z,16532
2023-03-31T10:46:21.642Z,15556
2023-03-31T10:47:22.252Z,17040
2023-03-31T10:48:22.818Z,26432
2023-03-31T10:49:23.436Z,30336
2023-03-31T10:50:24.015Z,31744
2023-03-31T10:51:24.614Z,32224
2023-03-31T10:52:25.214Z,32480
2023-03-31T10:53:25.836Z,33472
2023-03-31T10:54:26.442Z,34240
2023-03-31T10:55:27.057Z,34976
2023-03-31T10:56:27.678Z,35744
2023-03-31T10:57:28.342Z,36768
2023-03-31T10:58:28.910Z,37184
2023-03-31T10:59:29.495Z,36096
2023-03-31T11:00:30.102Z,37984
2023-03-31T11:01:30.715Z,38144
2023-03-31T11:02:31.375Z,38464
2023-03-31T11:03:32.194Z,38816
2023-03-31T11:04:32.688Z,36928
2023-03-31T11:05:33.266Z,36224
2023-03-31T11:06:33.869Z,35648
2023-03-31T11:07:34.471Z,35040
2023-03-31T11:08:35.095Z,34400
2023-03-31T11:09:35.686Z,33728
2023-03-31T11:10:36.293Z,33120
2023-03-31T11:11:36.893Z,32352
2023-03-31T11:12:37.494Z,31840
2023-03-31T11:13:38.112Z,32192
2023-03-31T11:14:38.708Z,32576
2023-03-31T11:15:39.323Z,32960
2023-03-31T11:16:40.026Z,33536
2023-03-31T11:17:40.727Z,34240
2023-03-31T11:18:41.304Z,34752
2023-03-31T11:19:41.910Z,35104
2023-03-31T11:20:42.525Z,35424
2023-03-31T11:21:43.122Z,35680
2023-03-31T11:22:43.722Z,35904
2023-03-31T11:23:44.325Z,36096
2023-03-31T11:24:44.940Z,36288
2023-03-31T11:25:45.559Z,36448
2023-03-31T11:26:46.160Z,36480
2023-03-31T11:27:46.785Z,36704
2023-03-31T11:28:47.384Z,36928
2023-03-31T11:29:47.983Z,37312
2023-03-31T11:30:48.598Z,37728
2023-03-31T11:31:49.252Z,37664
2023-03-31T11:32:49.878Z,36512
2023-03-31T11:33:50.434Z,35104
2023-03-31T11:34:51.056Z,34912
2023-03-31T11:35:51.685Z,33920
2023-03-31T11:36:52.279Z,31456
2023-03-31T11:37:52.901Z,30368
2023-03-31T11:38:53.479Z,29664
2023-03-31T11:39:54.077Z,29088
2023-03-31T11:40:54.679Z,28384
2023-03-31T11:41:55.280Z,27200
2023-03-31T11:42:55.878Z,25824
2023-03-31T11:43:56.478Z,24192
2023-03-31T11:44:57.075Z,22656
2023-03-31T11:45:57.722Z,21440
2023-03-31T11:46:58.292Z,20416
2023-03-31T11:47:58.957Z,19712
2023-03-31T11:48:59.539Z,19232
2023-03-31T11:50:00.153Z,18848
2023-03-31T11:51:00.761Z,18720
2023-03-31T11:52:01.399Z,18784
2023-03-31T11:53:02.013Z,19008
2023-03-31T11:54:02.593Z,19360
2023-03-31T11:55:03.514Z,19840
2023-03-31T11:56:04.065Z,20416
2023-03-31T11:57:04.772Z,20960
2023-03-31T11:58:05.321Z,21152
2023-03-31T11:59:05.937Z,21120
2023-03-31T12:00:06.532Z,20896
2023-03-31T12:01:07.124Z,20608
2023-03-31T12:02:07.726Z,19936
2023-03-31T12:03:08.438Z,19552
2023-03-31T12:04:09.103Z,19392
2023-03-31T12:05:09.714Z,19264
2023-03-31T12:06:10.651Z,18880
2023-03-31T12:07:10.946Z,18304
2023-03-31T12:08:11.553Z,17560
2023-03-31T12:09:12.163Z,17100
2023-03-31T12:10:12.774Z,16664
2023-03-31T12:11:13.362Z,16292
2023-03-31T12:12:13.962Z,15936
2023-03-31T12:13:14.563Z,15744
2023-03-31T12:14:15.159Z,15684
2023-03-31T12:15:15.786Z,15720
2023-03-31T12:16:16.428Z,15800
2023-03-31T12:17:17.039Z,15848
2023-03-31T12:18:17.632Z,15828
2023-03-31T12:19:18.227Z,15776
2023-03-31T12:20:18.825Z,15596
2023-03-31T12:21:19.422Z,15380
2023-03-31T12:22:20.021Z,15180
2023-03-31T12:23:20.618Z,15032
2023-03-31T12:24:21.218Z,14868
2023-03-31T12:25:21.814Z,14664
2023-03-31T12:26:22.413Z,14436
2023-03-31T12:27:23.015Z,14152
2023-03-31T12:28:23.615Z,13928
2023-03-31T12:29:24.208Z,13904
2023-03-31T12:30:24.822Z,14144
2023-03-31T12:31:25.452Z,14640
2023-03-31T12:32:26.053Z,15280
2023-03-31T12:33:26.655Z,15280
2023-03-31T12:34:27.256Z,14708
2023-03-31T12:35:27.877Z,14256
2023-03-31T12:36:28.578Z,14556
2023-03-31T12:37:29.176Z,14992
2023-03-31T12:38:29.775Z,15412
2023-03-31T12:39:30.381Z,15940
2023-03-31T12:40:31.000Z,17440
2023-03-31T12:41:31.602Z,19136
2023-03-31T12:42:32.194Z,21088
2023-03-31T12:43:32.817Z,23008
2023-03-31T12:44:33.403Z,24224
2023-03-31T12:45:34.005Z,25504
2023-03-31T12:46:34.661Z,26784
2023-03-31T12:47:35.245Z,28416
2023-03-31T12:48:35.815Z,30080
2023-03-31T12:49:36.414Z,32128
2023-03-31T12:50:37.018Z,34784
2023-03-31T12:51:37.641Z,39456
2023-03-31T12:52:38.237Z,44288
2023-03-31T12:53:38.838Z,48896
2023-03-31T12:54:39.439Z,51968
2023-03-31T12:55:40.064Z,57344
2023-03-31T12:56:40.669Z,68288
2023-03-31T12:57:41.276Z,64544
2023-03-31T12:58:41.886Z,53664
2023-03-31T12:59:42.487Z,53632
2023-03-31T13:00:43.120Z,52512
2023-03-31T13:01:43.719Z,56512
2023-03-31T13:02:44.402Z,52576
2023-03-31T13:03:45.049Z,58848
2023-03-31T13:04:45.648Z,59072
2023-03-31T13:05:46.250Z,59968
2023-03-31T13:06:46.850Z,55136
2023-03-31T13:07:47.452Z,52864
2023-03-31T13:08:48.053Z,51072
2023-03-31T13:09:48.649Z,50080
2023-03-31T13:10:49.333Z,48928
2023-03-31T13:11:49.898Z,47424
2023-03-31T13:12:50.519Z,44480
2023-03-31T13:14:00.108Z,43040
2023-03-31T13:14:52.734Z,42560
2023-03-31T13:15:53.333Z,42688
2023-03-31T13:16:55.581Z,43328
2023-03-31T13:17:55.596Z,45888
2023-03-31T13:18:56.171Z,45600
2023-03-31T13:19:56.818Z,44896
2023-03-31T13:20:57.391Z,41920
2023-03-31T13:21:57.993Z,36608
2023-03-31T13:22:58.588Z,35008
2023-03-31T13:23:59.198Z,36640
2023-03-31T13:24:59.819Z,43936
2023-03-31T13:26:00.398Z,48224
2023-03-31T13:27:00.987Z,43616
2023-03-31T13:28:01.589Z,40384
2023-03-31T13:29:02.190Z,38816
2023-03-31T13:30:02.807Z,39168
2023-03-31T13:31:03.425Z,41568
2023-03-31T13:32:04.052Z,64512
2023-03-31T13:33:04.684Z,75264
2023-03-31T13:34:05.306Z,69856
2023-03-31T13:35:05.906Z,113312
2023-03-31T13:36:06.788Z,111840
2023-03-31T13:37:07.491Z,68992
2023-03-31T13:38:08.096Z,53280
2023-03-31T13:39:11.006Z,42048
2023-03-31T13:40:10.283Z,41376
2023-03-31T13:41:10.892Z,59104
2023-03-31T13:42:11.511Z,32992
2023-03-31T13:43:12.125Z,26816
2023-03-31T13:44:12.721Z,22208
2023-03-31T13:45:13.410Z,19040
2023-03-31T13:46:14.369Z,15896